createdAt,value
2022-09-15T00:01:18.837Z,9.90
2022-09-15T00:03:23.951Z,9.93
2022-09-15T00:05:26.289Z,11.95
2022-09-15T00:07:28.378Z,8.98
2022-09-15T00:09:30.723Z,9.55
2022-09-15T00:11:36.241Z,10.23
2022-09-15T00:13:40.283Z,10.45
2022-09-15T00:15:43.254Z,11.00
2022-09-15T00:17:50.786Z,10.23
2022-09-15T00:19:53.343Z,11.10
2022-09-15T00:21:55.824Z,10.05
2022-09-15T00:24:00.268Z,11.48
2022-09-15T00:26:07.102Z,10.75
2022-09-15T00:28:09.567Z,10.68
2022-09-15T00:30:12.019Z,10.30
2022-09-15T00:32:14.048Z,11.18
2022-09-15T00:34:16.569Z,11.63
2022-09-15T00:36:20.402Z,11.63
2022-09-15T00:38:22.700Z,11.57
2022-09-15T00:40:25.190Z,11.77
2022-09-15T00:42:27.346Z,9.93
2022-09-15T00:44:59.337Z,12.25
2022-09-15T00:47:18.854Z,11.73
2022-09-15T00:49:37.688Z,11.82
2022-09-15T00:52:09.208Z,11.32
2022-09-15T00:54:36.329Z,12.57
2022-09-15T00:56:41.362Z,12.77
2022-09-15T00:58:52.854Z,11.60
2022-09-15T01:00:59.394Z,11.15
2022-09-15T01:03:02.735Z,13.07
2022-09-15T01:05:10.453Z,11.45
2022-09-15T01:07:18.549Z,11.90
2022-09-15T01:09:33.640Z,12.00
2022-09-15T01:11:36.117Z,11.70
2022-09-15T01:13:38.527Z,13.15
2022-09-15T01:21:47.632Z,10.98
2022-09-15T01:24:16.889Z,11.55
2022-09-15T01:26:28.136Z,12.38
2022-09-15T01:28:57.382Z,11.95
2022-09-15T01:31:23.078Z,11.43
2022-09-15T01:34:03.552Z,12.27
2022-09-15T01:36:19.185Z,12.05
2022-09-15T01:39:00.414Z,10.15
2022-09-15T01:41:09.774Z,11.98
2022-09-15T01:43:12.921Z,11.07
2022-09-15T01:45:22.466Z,12.13
2022-09-15T01:47:28.114Z,12.48
2022-09-15T01:49:55.906Z,10.60
2022-09-15T01:51:57.944Z,11.40
2022-09-15T01:54:04.408Z,11.50
2022-09-15T01:56:10.805Z,11.65
2022-09-15T01:58:13.281Z,11.15
2022-09-15T02:00:15.938Z,11.27
2022-09-15T02:02:25.112Z,13.88
2022-09-15T02:04:38.696Z,10.57
2022-09-15T02:06:53.741Z,12.88
2022-09-15T02:09:14.050Z,10.40
2022-09-15T02:11:20.466Z,11.07
2022-09-15T02:13:56.576Z,10.82
2022-09-15T02:16:00.719Z,10.63
2022-09-15T02:18:07.381Z,11.65
2022-09-15T02:20:27.576Z,10.65
2022-09-15T02:22:38.100Z,11.40
2022-09-15T02:24:46.083Z,12.32
2022-09-15T02:26:51.544Z,11.73
2022-09-15T02:28:58.156Z,12.63
2022-09-15T02:31:03.098Z,11.32
2022-09-15T02:33:11.124Z,14.48
2022-09-15T02:35:15.878Z,12.57
2022-09-15T02:37:20.934Z,12.70
2022-09-15T02:39:29.909Z,12.52
2022-09-15T02:41:34.843Z,11.82
2022-09-15T02:43:48.381Z,14.02
2022-09-15T02:45:50.679Z,12.63
2022-09-15T02:47:52.749Z,12.27
2022-09-15T02:51:57.478Z,12.25
2022-09-15T02:56:01.887Z,11.20
2022-09-15T02:58:04.356Z,13.05
2022-09-15T03:00:07.634Z,11.60
2022-09-15T03:02:09.790Z,11.00
2022-09-15T03:04:12.473Z,12.52
2022-09-15T03:08:16.622Z,13.93
2022-09-15T03:10:19.891Z,12.07
2022-09-15T03:12:21.921Z,9.35
2022-09-15T03:14:24.011Z,11.07
2022-09-15T03:16:28.797Z,8.63
2022-09-15T03:18:30.932Z,9.23
2022-09-15T03:22:36.300Z,8.80
2022-09-15T03:24:38.727Z,8.65
2022-09-15T03:26:41.070Z,8.05
2022-09-15T03:28:43.669Z,8.70
2022-09-15T03:30:45.887Z,10.13
2022-09-15T03:32:47.922Z,8.05
2022-09-15T03:34:50.271Z,6.47
2022-09-15T03:38:57.063Z,8.00
2022-09-15T03:41:05.577Z,6.88
2022-09-15T03:43:07.747Z,8.70
2022-09-15T03:45:10.081Z,8.75
2022-09-15T03:47:12.403Z,8.20
2022-09-15T03:51:16.610Z,7.07
2022-09-15T03:53:19.816Z,11.02
2022-09-15T03:55:21.900Z,9.65
2022-09-15T03:59:26.381Z,6.88
2022-09-15T04:03:31.375Z,7.53
2022-09-15T04:05:34.517Z,10.75
2022-09-15T04:07:37.381Z,8.98
2022-09-15T04:09:39.470Z,8.73
2022-09-15T04:11:41.896Z,10.13
2022-09-15T04:15:46.261Z,9.60
2022-09-15T04:17:49.558Z,9.55
2022-09-15T04:19:51.617Z,8.00
2022-09-15T04:23:55.903Z,7.40
2022-09-15T04:28:02.368Z,8.82
2022-09-15T04:30:07.607Z,11.25
2022-09-15T04:32:10.326Z,6.50
2022-09-15T04:34:12.985Z,8.23
2022-09-15T04:36:19.514Z,8.23
2022-09-15T04:38:21.573Z,8.10
2022-09-15T04:42:25.991Z,6.90
2022-09-15T04:46:30.052Z,7.65
2022-09-15T04:48:32.735Z,7.28
2022-09-15T04:50:34.758Z,11.07
2022-09-15T04:52:37.376Z,8.38
2022-09-15T04:54:39.786Z,7.25
2022-09-15T04:56:41.874Z,7.72
2022-09-15T05:00:48.460Z,8.55
2022-09-15T05:02:50.702Z,8.15
2022-09-15T05:04:52.762Z,8.68
2022-09-15T05:06:55.131Z,7.60
2022-09-15T05:08:58.445Z,9.65
2022-09-15T05:11:05.553Z,6.82
2022-09-15T05:13:07.858Z,7.18
2022-09-15T05:19:24.156Z,7.65
2022-09-15T05:21:27.698Z,7.70
2022-09-15T05:23:29.888Z,12.05
2022-09-15T05:25:32.266Z,7.47
2022-09-15T05:27:34.396Z,7.55
2022-09-15T05:33:40.888Z,9.25
2022-09-15T05:35:56.994Z,8.13
2022-09-15T05:37:59.389Z,11.45
2022-09-15T05:42:10.435Z,7.80
2022-09-15T05:44:12.871Z,7.28
2022-09-15T05:46:17.076Z,8.45
2022-09-15T05:48:19.708Z,7.75
2022-09-15T05:50:22.192Z,8.23
2022-09-15T05:54:26.232Z,8.43
2022-09-15T05:56:28.615Z,7.50
2022-09-15T05:58:31.596Z,9.23
2022-09-15T06:00:34.455Z,9.55
2022-09-15T06:02:36.832Z,8.50
2022-09-15T06:04:41.562Z,10.13
2022-09-15T06:06:43.523Z,9.15
2022-09-15T06:08:53.031Z,9.23
2022-09-15T06:11:08.483Z,7.57
2022-09-15T06:13:10.577Z,7.40
2022-09-15T06:15:12.861Z,9.32
2022-09-15T06:19:17.108Z,8.25
2022-09-15T06:21:26.742Z,10.60
2022-09-15T06:23:28.871Z,7.82
2022-09-15T06:25:30.925Z,8.57
2022-09-15T06:27:33.542Z,11.02
2022-09-15T06:29:35.637Z,8.82
2022-09-15T06:31:37.888Z,9.32
2022-09-15T06:33:47.994Z,8.38
2022-09-15T06:35:50.124Z,9.98
2022-09-15T06:37:52.184Z,11.13
2022-09-15T06:39:54.511Z,10.68
2022-09-15T06:42:02.774Z,10.48
2022-09-15T06:44:05.700Z,10.75
2022-09-15T06:46:14.819Z,8.82
2022-09-15T06:48:24.404Z,12.57
2022-09-15T06:50:28.230Z,9.50
2022-09-15T06:52:30.690Z,8.00
2022-09-15T06:54:32.749Z,9.35
2022-09-15T06:56:38.116Z,8.65
2022-09-15T06:58:42.585Z,9.20
2022-09-15T07:00:45.062Z,10.10
2022-09-15T07:02:53.400Z,8.20
2022-09-15T07:04:55.927Z,8.23
2022-09-15T07:06:58.074Z,7.25
2022-09-15T07:09:00.359Z,7.00
2022-09-15T07:11:02.737Z,8.52
2022-09-15T07:13:04.832Z,10.35
2022-09-15T07:15:07.875Z,8.20
2022-09-15T07:17:10.238Z,8.93
2022-09-15T07:19:12.494Z,7.00
2022-09-15T07:21:20.469Z,7.75
2022-09-15T07:23:22.989Z,7.90
2022-09-15T07:25:25.038Z,7.60
2022-09-15T07:27:27.226Z,10.98
2022-09-15T07:29:29.646Z,8.75
2022-09-15T07:31:34.846Z,10.02
2022-09-15T07:33:37.411Z,8.10
2022-09-15T07:35:44.054Z,10.60
2022-09-15T07:37:46.102Z,8.85
2022-09-15T07:39:48.416Z,7.43
2022-09-15T07:41:50.808Z,10.13
2022-09-15T07:43:56.582Z,6.80
2022-09-15T07:46:00.563Z,8.00
2022-09-15T07:48:03.436Z,8.18
2022-09-15T07:50:07.372Z,9.38
2022-09-15T07:52:11.070Z,8.30
2022-09-15T07:54:19.387Z,9.02
2022-09-15T07:56:23.945Z,8.25
2022-09-15T07:58:26.081Z,7.75
2022-09-15T08:00:28.936Z,8.45
2022-09-15T08:02:31.176Z,7.97
2022-09-15T08:04:33.339Z,6.85
2022-09-15T08:06:35.947Z,6.90
2022-09-15T08:08:39.789Z,7.47
2022-09-15T08:10:42.190Z,11.35
2022-09-15T08:12:44.639Z,6.95
2022-09-15T08:14:46.827Z,7.75
2022-09-15T08:16:49.331Z,6.93
2022-09-15T08:18:54.200Z,7.22
2022-09-15T08:20:56.518Z,6.93
2022-09-15T08:22:58.652Z,8.45
2022-09-15T08:25:01.099Z,7.32
2022-09-15T08:27:04.952Z,7.32
2022-09-15T08:29:07.210Z,8.55
2022-09-15T08:31:12.784Z,6.13
2022-09-15T08:33:15.047Z,8.13
2022-09-15T08:35:17.903Z,7.72
2022-09-15T08:37:20.477Z,7.05
2022-09-15T08:39:22.743Z,7.20
2022-09-15T08:41:34.550Z,8.75
2022-09-15T08:43:52.810Z,7.20
2022-09-15T08:46:04.909Z,9.18
2022-09-15T08:48:07.206Z,7.50
2022-09-15T08:50:34.396Z,8.25
2022-09-15T08:53:04.102Z,8.85
2022-09-15T08:55:14.984Z,5.80
2022-09-15T08:57:22.357Z,6.35
2022-09-15T08:59:35.079Z,6.95
2022-09-15T09:02:06.286Z,7.15
2022-09-15T09:05:03.608Z,6.65
2022-09-15T09:07:36.076Z,6.45
2022-09-15T09:09:49.297Z,6.32
2022-09-15T09:12:26.403Z,7.90
2022-09-15T09:15:12.818Z,7.10
2022-09-15T09:17:41.975Z,7.82
2022-09-15T09:20:02.558Z,7.15
2022-09-15T09:22:16.686Z,9.00
2022-09-15T09:24:43.546Z,6.32
2022-09-15T09:26:52.434Z,8.10
2022-09-15T09:29:05.863Z,9.88
2022-09-15T09:31:18.834Z,7.53
2022-09-15T09:33:53.448Z,8.30
2022-09-15T09:35:59.385Z,6.22
2022-09-15T09:38:02.461Z,8.73
2022-09-15T09:40:08.440Z,8.57
2022-09-15T09:42:16.905Z,6.20
2022-09-15T09:44:19.721Z,7.20
2022-09-15T09:46:45.820Z,5.85
2022-09-15T09:49:26.170Z,6.68
2022-09-15T09:51:38.022Z,7.25
2022-09-15T09:53:40.432Z,6.18
2022-09-15T09:55:42.691Z,7.15
2022-09-15T09:57:45.424Z,6.65
2022-09-15T09:59:51.959Z,7.25
2022-09-15T10:02:21.255Z,5.82
2022-09-15T10:04:23.973Z,7.40
2022-09-15T10:06:31.143Z,7.53
2022-09-15T10:08:36.690Z,5.07
2022-09-15T10:10:39.408Z,8.43
2022-09-15T10:12:45.949Z,7.65
2022-09-15T10:14:53.946Z,5.47
2022-09-15T10:17:21.809Z,7.47
2022-09-15T10:19:24.619Z,8.10
2022-09-15T10:21:27.106Z,8.40
2022-09-15T10:23:32.798Z,6.45
2022-09-15T10:25:58.480Z,7.90
2022-09-15T10:28:21.025Z,5.82
2022-09-15T10:30:24.853Z,7.18
2022-09-15T10:32:31.729Z,8.13
2022-09-15T10:34:36.405Z,6.28
2022-09-15T10:36:39.474Z,5.80
2022-09-15T10:38:57.917Z,6.93
2022-09-15T10:41:28.235Z,5.80
2022-09-15T10:43:50.934Z,6.88
2022-09-15T10:46:08.222Z,6.45
2022-09-15T10:48:37.375Z,5.53
2022-09-15T10:51:01.174Z,5.20
2022-09-15T10:53:31.522Z,5.32
2022-09-15T10:55:55.774Z,7.30
2022-09-15T10:58:23.689Z,6.70
2022-09-15T11:04:03.585Z,6.35
2022-09-15T11:07:58.663Z,7.80
2022-09-15T11:10:30.534Z,7.22
2022-09-15T11:12:49.548Z,6.25
2022-09-15T11:15:25.580Z,7.53
2022-09-15T11:25:37.473Z,7.82
2022-09-15T11:27:54.038Z,7.15
2022-09-15T11:30:21.356Z,5.90
2022-09-15T11:32:58.203Z,6.97
2022-09-15T11:35:33.320Z,7.18
2022-09-15T11:37:48.368Z,6.93
2022-09-15T11:40:39.057Z,5.18
2022-09-15T11:43:00.531Z,6.85
2022-09-15T11:45:18.416Z,6.50
2022-09-15T11:47:54.089Z,7.13
2022-09-15T11:50:24.756Z,7.65
2022-09-15T11:52:57.831Z,6.82
2022-09-15T11:55:27.921Z,6.30
2022-09-15T11:57:45.060Z,8.18
2022-09-15T12:00:03.914Z,8.00
2022-09-15T12:03:33.676Z,9.40
2022-09-15T13:21:06.432Z,8.10
2022-09-15T13:23:14.305Z,7.65
2022-09-15T13:25:26.343Z,6.07
2022-09-15T13:31:04.789Z,8.43
2022-09-15T13:59:57.210Z,6.18
2022-09-15T14:11:09.322Z,7.55
2022-09-15T14:19:42.830Z,7.03
2022-09-15T14:22:07.296Z,7.32
2022-09-15T14:24:33.793Z,6.22
2022-09-15T14:26:39.870Z,8.30
2022-09-15T14:29:00.468Z,7.55
2022-09-15T14:31:07.940Z,7.45
2022-09-15T14:33:17.864Z,8.40
2022-09-15T14:35:28.085Z,7.13
2022-09-15T14:37:36.705Z,6.45
2022-09-15T14:39:43.388Z,7.70
2022-09-15T14:41:49.098Z,7.38
2022-09-15T14:43:57.866Z,7.55
2022-09-15T14:46:17.520Z,6.57
2022-09-15T14:48:28.448Z,8.80
2022-09-15T14:56:25.687Z,7.80
2022-09-15T14:59:08.614Z,7.55
2022-09-15T15:01:30.983Z,7.88
2022-09-15T15:04:03.977Z,6.75
2022-09-15T15:06:30.564Z,6.63
2022-09-15T15:08:54.426Z,8.65
2022-09-15T15:10:59.233Z,6.25
2022-09-15T15:13:15.589Z,8.57
2022-09-15T15:15:22.528Z,8.73
2022-09-15T15:17:47.222Z,6.10
2022-09-15T15:20:12.108Z,8.38
2022-09-15T15:22:21.145Z,7.72
2022-09-15T15:24:24.639Z,9.55
2022-09-15T15:26:39.935Z,9.40
2022-09-15T15:28:45.179Z,8.18
2022-09-15T15:30:48.424Z,5.78
2022-09-15T15:42:03.657Z,7.40
2022-09-15T15:47:20.172Z,7.75
2022-09-15T15:50:12.147Z,6.05
2022-09-15T15:52:16.245Z,5.95
2022-09-15T15:54:20.834Z,5.80
2022-09-15T15:56:26.954Z,5.50
2022-09-15T15:58:29.690Z,6.88
2022-09-15T16:00:52.301Z,7.65
2022-09-15T16:02:58.451Z,8.52
2022-09-15T16:06:01.580Z,6.72
2022-09-15T16:16:44.749Z,6.50
2022-09-15T16:21:43.059Z,6.53
2022-09-15T16:23:46.730Z,7.57
2022-09-15T16:26:07.399Z,8.07
2022-09-15T16:28:13.282Z,6.95
2022-09-15T16:30:18.278Z,6.53
2022-09-15T16:32:23.126Z,7.40
2022-09-15T16:34:28.488Z,7.43
2022-09-15T16:36:35.041Z,6.47
2022-09-15T16:38:37.546Z,5.57
2022-09-15T16:40:40.227Z,7.25
2022-09-15T16:42:45.003Z,5.25
2022-09-15T16:44:47.565Z,8.27
2022-09-15T16:46:50.799Z,8.90
2022-09-15T16:48:54.227Z,6.32
2022-09-15T16:51:24.943Z,7.32
2022-09-15T16:53:26.005Z,5.55
2022-09-15T16:55:34.429Z,7.75
2022-09-15T16:57:36.778Z,7.55
2022-09-15T16:59:43.080Z,9.25
2022-09-15T17:09:27.188Z,5.82
2022-09-15T17:11:57.982Z,6.05
2022-09-15T17:16:28.964Z,7.43
2022-09-15T17:18:35.511Z,7.53
2022-09-15T17:20:47.946Z,4.85
2022-09-15T17:23:35.181Z,6.22
2022-09-15T17:28:24.570Z,5.30
2022-09-15T17:30:36.076Z,5.18
2022-09-15T17:32:44.654Z,6.70
2022-09-15T17:34:50.877Z,5.97
2022-09-15T17:36:59.530Z,6.13
2022-09-15T17:39:08.280Z,8.40
2022-09-15T17:41:15.860Z,6.15
2022-09-15T17:43:29.342Z,5.82
2022-09-15T17:45:39.804Z,6.10
2022-09-15T17:47:49.986Z,6.75
2022-09-15T17:49:56.595Z,7.13
2022-09-15T17:52:00.707Z,7.15
2022-09-15T17:54:11.253Z,5.72
2022-09-15T17:56:17.263Z,4.25
2022-09-15T17:58:23.170Z,5.18
2022-09-15T18:00:35.460Z,5.95
2022-09-15T18:02:47.991Z,4.93
2022-09-15T18:04:50.728Z,5.25
2022-09-15T18:06:53.712Z,6.72
2022-09-15T18:08:55.920Z,7.78
2022-09-15T18:10:58.274Z,6.57
2022-09-15T18:13:02.773Z,4.22
2022-09-15T18:15:05.912Z,6.57
2022-09-15T18:17:10.061Z,7.47
2022-09-15T18:19:13.001Z,4.80
2022-09-15T18:21:25.563Z,7.57
2022-09-15T18:23:28.717Z,5.30
2022-09-15T18:25:57.088Z,5.18
2022-09-15T18:28:01.049Z,5.95
2022-09-15T18:30:04.131Z,5.85
2022-09-15T18:32:06.904Z,7.00
2022-09-15T18:34:09.402Z,7.35
2022-09-15T18:36:12.471Z,8.15
2022-09-15T18:38:16.637Z,8.15
2022-09-15T18:40:22.399Z,7.68
2022-09-15T18:42:29.862Z,7.00
2022-09-15T18:44:34.977Z,8.70
2022-09-15T18:46:40.207Z,8.65
2022-09-15T18:48:42.966Z,7.90
2022-09-15T18:50:46.445Z,6.35
2022-09-15T18:53:06.003Z,8.18
2022-09-15T18:55:55.279Z,8.77
2022-09-15T18:58:11.860Z,5.72
2022-09-15T19:00:36.678Z,9.15
2022-09-15T19:02:54.251Z,5.53
2022-09-15T19:05:16.778Z,6.13
2022-09-15T19:07:34.394Z,6.20
2022-09-15T19:14:57.463Z,7.68
2022-09-15T19:17:12.478Z,5.97
2022-09-15T19:19:26.077Z,6.82
2022-09-15T19:21:45.483Z,5.22
2022-09-15T19:23:49.335Z,6.68
2022-09-15T19:26:15.520Z,5.50
2022-09-15T19:28:41.191Z,5.50
2022-09-15T19:30:47.985Z,6.60
2022-09-15T19:32:55.035Z,6.47
2022-09-15T19:37:54.431Z,7.78
2022-09-15T21:08:49.844Z,5.35
2022-09-15T21:10:53.813Z,6.25
2022-09-15T21:13:08.060Z,8.00
2022-09-15T21:15:11.394Z,6.85
2022-09-15T21:17:15.337Z,7.80
2022-09-15T21:19:18.533Z,6.70
2022-09-15T21:21:27.328Z,6.40
2022-09-15T21:23:43.487Z,8.20
2022-09-15T21:25:47.017Z,6.28
2022-09-15T21:27:50.541Z,10.15
2022-09-15T21:29:54.263Z,8.27
2022-09-15T21:31:57.900Z,7.55
2022-09-15T21:34:01.485Z,6.60
2022-09-15T21:36:13.171Z,8.40
2022-09-15T21:38:19.254Z,6.63
2022-09-15T21:40:22.017Z,7.15
2022-09-15T22:10:39.279Z,7.20
2022-09-15T22:12:44.790Z,6.97
2022-09-15T22:14:47.516Z,5.80
2022-09-15T22:16:50.353Z,10.75
2022-09-15T22:19:21.534Z,5.60
2022-09-15T22:21:27.890Z,7.97
2022-09-15T22:23:30.958Z,6.03
2022-09-15T22:25:37.821Z,8.88
2022-09-15T22:27:40.843Z,5.75
2022-09-15T22:29:43.660Z,4.38
2022-09-15T22:31:46.878Z,5.93
2022-09-15T22:33:50.870Z,4.50
2022-09-15T22:35:53.777Z,5.03
2022-09-15T22:37:57.134Z,5.60
2022-09-15T22:40:00.362Z,4.80
2022-09-15T22:42:02.994Z,5.28
2022-09-15T22:44:08.031Z,5.25
2022-09-15T22:46:11.684Z,6.65
2022-09-15T22:48:14.719Z,7.10
2022-09-15T22:50:17.345Z,7.53
2022-09-15T22:52:20.173Z,6.13
2022-09-15T22:54:22.900Z,6.78
2022-09-15T22:56:26.603Z,8.05
2022-09-15T22:58:29.806Z,8.13
2022-09-15T23:00:32.714Z,5.93
2022-09-15T23:02:35.557Z,6.70
2022-09-15T23:04:38.117Z,6.45
2022-09-15T23:06:40.996Z,5.60
2022-09-15T23:08:44.755Z,6.43
2022-09-15T23:10:53.724Z,6.90
2022-09-15T23:13:01.481Z,5.85
2022-09-15T23:15:06.681Z,10.02
2022-09-15T23:17:09.962Z,5.53
2022-09-15T23:19:14.617Z,10.98
2022-09-15T23:21:19.160Z,8.48
2022-09-15T23:23:21.805Z,5.43
2022-09-15T23:25:29.635Z,6.43
2022-09-15T23:27:33.035Z,7.53
2022-09-15T23:29:39.229Z,3.97
2022-09-15T23:31:42.408Z,5.57
2022-09-15T23:33:46.618Z,5.93
2022-09-15T23:35:54.107Z,5.80
2022-09-15T23:37:59.775Z,5.82
2022-09-15T23:40:05.899Z,6.32
2022-09-15T23:42:36.703Z,5.45
2022-09-15T23:44:42.279Z,4.70
2022-09-15T23:46:45.500Z,6.28
2022-09-15T23:48:48.292Z,8.75
2022-09-15T23:50:53.452Z,6.90
2022-09-15T23:52:57.136Z,6.53
2022-09-15T23:54:59.880Z,5.55
2022-09-15T23:57:05.547Z,4.35
2022-09-15T23:59:11.899Z,5.05
